createdAt,value
2022-11-05T00:01:21.507Z,99760.00
2022-11-05T00:04:08.209Z,99759.80
2022-11-05T00:06:54.785Z,99759.00
2022-11-05T00:09:31.427Z,99763.80
2022-11-05T00:12:26.730Z,99764.60
2022-11-05T00:15:13.430Z,99759.60
2022-11-05T00:17:41.666Z,99753.00
2022-11-05T00:20:13.607Z,99756.40
2022-11-05T00:23:00.274Z,99755.60
2022-11-05T00:25:29.929Z,99763.60
2022-11-05T00:28:02.234Z,99762.20
2022-11-05T00:30:30.564Z,99764.80
2022-11-05T00:33:05.138Z,99767.20
2022-11-05T00:35:32.920Z,99766.80
2022-11-05T00:38:00.719Z,99758.60
2022-11-05T00:40:28.646Z,99759.40
2022-11-05T00:43:15.262Z,99757.40
2022-11-05T00:45:43.329Z,99750.20
2022-11-05T00:48:29.862Z,99741.00
2022-11-05T00:50:57.716Z,99742.60
2022-11-05T00:53:25.561Z,99740.00
2022-11-05T00:55:53.471Z,99736.60
2022-11-05T00:58:22.920Z,99742.60
2022-11-05T01:00:56.972Z,99739.60
2022-11-05T01:03:29.659Z,99740.80
2022-11-05T01:06:06.221Z,99732.40
2022-11-05T01:08:34.074Z,99735.60
2022-11-05T01:11:11.484Z,99740.00
2022-11-05T01:13:40.191Z,99733.00
2022-11-05T01:16:09.827Z,99734.20
2022-11-05T01:18:38.886Z,99739.80
2022-11-05T01:21:13.185Z,99738.20
2022-11-05T01:23:40.967Z,99746.80
2022-11-05T01:26:08.805Z,99752.60
2022-11-05T01:28:36.685Z,99752.60
2022-11-05T01:31:04.835Z,99750.60
2022-11-05T01:33:32.707Z,99748.00
2022-11-05T01:36:00.813Z,99750.00
2022-11-05T01:38:28.618Z,99753.60
2022-11-05T01:40:56.405Z,99758.00
2022-11-05T01:43:24.242Z,99765.40
2022-11-05T01:45:57.586Z,99762.80
2022-11-05T01:48:33.077Z,99769.20
2022-11-05T01:51:08.786Z,99769.00
2022-11-05T01:53:43.407Z,99774.00
2022-11-05T01:56:16.211Z,99769.20
2022-11-05T01:59:03.688Z,99777.80
2022-11-05T02:01:31.937Z,99771.80
2022-11-05T02:04:08.684Z,99775.80
2022-11-05T02:06:46.055Z,99768.60
2022-11-05T02:09:27.706Z,99760.60
2022-11-05T02:11:55.542Z,99764.00
2022-11-05T02:14:23.536Z,99775.80
2022-11-05T02:17:16.121Z,99777.20
2022-11-05T02:19:53.173Z,99771.80
2022-11-05T02:23:04.029Z,99774.00
2022-11-05T02:26:13.609Z,99772.40
2022-11-05T02:29:37.669Z,99774.00
2022-11-05T02:32:23.049Z,99766.60
2022-11-05T02:35:27.060Z,99765.20
2022-11-05T02:38:13.271Z,99770.00
2022-11-05T02:41:13.477Z,99773.60
2022-11-05T02:44:19.145Z,99776.20
2022-11-05T02:47:03.714Z,99778.40
2022-11-05T02:49:57.527Z,99784.80
2022-11-05T02:52:43.257Z,99785.00
2022-11-05T02:55:29.988Z,99795.00
2022-11-05T02:57:59.776Z,99798.40
2022-11-05T03:00:39.519Z,99803.60
